sensor_id;sensor_type;location;lat;lon;timestamp;pressure;altitude;pressure_sealevel;temperature;humidity
43503;BME280;29098;48.184;16.298;2023-11-21T00:02:04;98889.53;;;7.68;100.00
43503;BME280;29098;48.184;16.298;2023-11-21T00:04:30;98878.69;;;7.48;100.00
43503;BME280;29098;48.184;16.298;2023-11-21T00:06:55;98901.25;;;7.57;100.00
43503;BME280;29098;48.184;16.298;2023-11-21T00:09:21;98912.28;;;7.76;100.00
43503;BME280;29098;48.184;16.298;2023-11-21T00:11:47;98894.72;;;7.76;100.00
43503;BME280;29098;48.184;16.298;2023-11-21T00:14:12;98917.50;;;7.84;100.00
43503;BME280;29098;48.184;16.298;2023-11-21T00:16:41;98859.41;;;7.64;100.00
43503;BME280;29098;48.184;16.298;2023-11-21T00:19:06;98884.13;;;7.70;100.00
43503;BME280;29098;48.184;16.298;2023-11-21T00:21:32;98861.88;;;7.34;100.00
43503;BME280;29098;48.184;16.298;2023-11-21T00:23:57;98864.84;;;7.31;100.00
43503;BME280;29098;48.184;16.298;2023-11-21T00:26:23;98892.25;;;7.28;100.00
43503;BME280;29098;48.184;16.298;2023-11-21T00:28:50;98908.63;;;7.30;100.00
43503;BME280;29098;48.184;16.298;2023-11-21T00:31:15;98905.06;;;7.15;100.00
43503;BME280;29098;48.184;16.298;2023-11-21T00:33:41;98908.03;;;7.03;100.00
43503;BME280;29098;48.184;16.298;2023-11-21T00:36:07;98885.16;;;6.89;100.00
43503;BME280;29098;48.184;16.298;2023-11-21T00:38:35;98909.06;;;6.94;100.00
43503;BME280;29098;48.184;16.298;2023-11-21T00:41:01;98897.31;;;6.81;100.00
43503;BME280;29098;48.184;16.298;2023-11-21T00:43:28;98925.47;;;6.79;100.00
43503;BME280;29098;48.184;16.298;2023-11-21T00:45:53;98914.19;;;6.79;100.00
43503;BME280;29098;48.184;16.298;2023-11-21T00:48:19;98908.97;;;6.62;100.00
43503;BME280;29098;48.184;16.298;2023-11-21T00:50:45;98899.16;;;6.72;100.00
43503;BME280;29098;48.184;16.298;2023-11-21T00:53:10;98893.59;;;6.67;100.00
43503;BME280;29098;48.184;16.298;2023-11-21T00:55:38;98897.69;;;6.62;100.00
43503;BME280;29098;48.184;16.298;2023-11-21T00:58:05;98845.84;;;6.49;100.00
43503;BME280;29098;48.184;16.298;2023-11-21T01:00:33;98882.31;;;6.58;100.00
43503;BME280;29098;48.184;16.298;2023-11-21T01:02:59;98886.59;;;6.43;100.00
43503;BME280;29098;48.184;16.298;2023-11-21T01:05:25;98852.91;;;6.23;100.00
43503;BME280;29098;48.184;16.298;2023-11-21T01:07:50;98853.06;;;6.30;100.00
43503;BME280;29098;48.184;16.298;2023-11-21T01:10:16;98889.38;;;6.50;100.00
43503;BME280;29098;48.184;16.298;2023-11-21T01:12:43;98859.47;;;6.36;100.00
43503;BME280;29098;48.184;16.298;2023-11-21T01:15:08;98899.38;;;6.21;100.00
43503;BME280;29098;48.184;16.298;2023-11-21T01:17:35;98885.97;;;6.24;100.00
43503;BME280;29098;48.184;16.298;2023-11-21T01:20:01;98868.44;;;6.08;100.00
43503;BME280;29098;48.184;16.298;2023-11-21T01:22:28;98880.38;;;5.94;100.00
43503;BME280;29098;48.184;16.298;2023-11-21T01:24:54;98846.50;;;5.93;100.00
43503;BME280;29098;48.184;16.298;2023-11-21T01:27:20;98868.28;;;5.85;100.00
43503;BME280;29098;48.184;16.298;2023-11-21T01:29:45;98878.41;;;5.96;100.00
43503;BME280;29098;48.184;16.298;2023-11-21T01:32:11;98863.69;;;5.87;100.00
43503;BME280;29098;48.184;16.298;2023-11-21T01:34:37;98829.03;;;5.76;100.00
43503;BME280;29098;48.184;16.298;2023-11-21T01:37:03;98852.09;;;5.89;100.00
43503;BME280;29098;48.184;16.298;2023-11-21T01:39:31;98830.31;;;5.81;100.00
43503;BME280;29098;48.184;16.298;2023-11-21T01:41:57;98856.66;;;5.71;100.00
43503;BME280;29098;48.184;16.298;2023-11-21T01:44:26;98819.56;;;5.75;100.00
43503;BME280;29098;48.184;16.298;2023-11-21T01:46:52;98842.13;;;5.85;100.00
43503;BME280;29098;48.184;16.298;2023-11-21T01:49:19;98847.66;;;5.73;100.00
43503;BME280;29098;48.184;16.298;2023-11-21T01:51:47;98863.84;;;5.77;100.00
43503;BME280;29098;48.184;16.298;2023-11-21T01:54:15;98815.47;;;5.56;100.00
43503;BME280;29098;48.184;16.298;2023-11-21T01:56:46;98861.56;;;5.66;100.00
43503;BME280;29098;48.184;16.298;2023-11-21T01:59:14;98847.34;;;5.60;100.00
43503;BME280;29098;48.184;16.298;2023-11-21T02:01:43;98878.25;;;5.73;100.00
43503;BME280;29098;48.184;16.298;2023-11-21T02:04:09;98874.00;;;5.80;100.00
43503;BME280;29098;48.184;16.298;2023-11-21T02:06:35;98841.28;;;5.76;100.00
43503;BME280;29098;48.184;16.298;2023-11-21T02:09:01;98875.47;;;5.74;100.00
43503;BME280;29098;48.184;16.298;2023-11-21T02:11:26;98849.28;;;5.58;100.00
43503;BME280;29098;48.184;16.298;2023-11-21T02:13:53;98872.84;;;5.66;100.00
43503;BME280;29098;48.184;16.298;2023-11-21T02:16:19;98817.25;;;5.47;100.00
43503;BME280;29098;48.184;16.298;2023-11-21T02:18:47;98857.63;;;5.70;100.00
43503;BME280;29098;48.184;16.298;2023-11-21T02:21:14;98828.69;;;5.71;100.00
43503;BME280;29098;48.184;16.298;2023-11-21T02:23:40;98828.69;;;5.55;100.00
43503;BME280;29098;48.184;16.298;2023-11-21T02:26:10;98803.84;;;5.51;100.00
43503;BME280;29098;48.184;16.298;2023-11-21T02:28:35;98819.34;;;5.44;100.00
43503;BME280;29098;48.184;16.298;2023-11-21T02:31:01;98873.78;;;5.48;100.00
43503;BME280;29098;48.184;16.298;2023-11-21T02:33:28;98823.28;;;5.31;100.00
43503;BME280;29098;48.184;16.298;2023-11-21T02:35:53;98829.00;;;5.43;100.00
43503;BME280;29098;48.184;16.298;2023-11-21T02:38:21;98856.44;;;5.31;100.00
43503;BME280;29098;48.184;16.298;2023-11-21T02:40:47;98802.22;;;5.58;100.00
43503;BME280;29098;48.184;16.298;2023-11-21T02:43:14;98803.53;;;5.45;100.00
43503;BME280;29098;48.184;16.298;2023-11-21T02:45:39;98832.78;;;5.49;100.00
43503;BME280;29098;48.184;16.298;2023-11-21T02:48:07;98835.53;;;5.39;100.00
43503;BME280;29098;48.184;16.298;2023-11-21T02:50:32;98855.16;;;5.43;100.00
43503;BME280;29098;48.184;16.298;2023-11-21T02:53:00;98848.22;;;5.26;100.00
43503;BME280;29098;48.184;16.298;2023-11-21T02:55:27;98836.53;;;5.46;100.00
43503;BME280;29098;48.184;16.298;2023-11-21T02:57:53;98854.00;;;5.46;100.00
43503;BME280;29098;48.184;16.298;2023-11-21T03:00:18;98843.22;;;5.41;100.00
43503;BME280;29098;48.184;16.298;2023-11-21T03:02:45;98796.59;;;5.19;100.00
43503;BME280;29098;48.184;16.298;2023-11-21T03:05:12;98783.38;;;5.21;100.00
43503;BME280;29098;48.184;16.298;2023-11-21T03:07:38;98833.38;;;5.18;100.00
43503;BME280;29098;48.184;16.298;2023-11-21T03:10:04;98851.97;;;5.23;100.00
43503;BME280;29098;48.184;16.298;2023-11-21T03:12:29;98810.13;;;5.06;100.00
43503;BME280;29098;48.184;16.298;2023-11-21T03:14:55;98810.34;;;5.13;100.00
43503;BME280;29098;48.184;16.298;2023-11-21T03:17:21;98806.72;;;5.06;100.00
43503;BME280;29098;48.184;16.298;2023-11-21T03:19:47;98797.06;;;5.06;100.00
43503;BME280;29098;48.184;16.298;2023-11-21T03:22:12;98825.56;;;4.83;100.00
43503;BME280;29098;48.184;16.298;2023-11-21T03:24:38;98827.88;;;4.94;100.00
43503;BME280;29098;48.184;16.298;2023-11-21T03:27:04;98815.13;;;4.83;100.00
43503;BME280;29098;48.184;16.298;2023-11-21T03:29:30;98771.50;;;4.67;100.00
43503;BME280;29098;48.184;16.298;2023-11-21T03:31:55;98819.06;;;4.96;100.00
43503;BME280;29098;48.184;16.298;2023-11-21T03:34:27;98819.63;;;4.73;100.00
43503;BME280;29098;48.184;16.298;2023-11-21T03:36:53;98848.59;;;4.88;100.00
43503;BME280;29098;48.184;16.298;2023-11-21T03:39:22;98829.63;;;4.77;100.00
43503;BME280;29098;48.184;16.298;2023-11-21T03:41:48;98827.47;;;4.73;100.00
43503;BME280;29098;48.184;16.298;2023-11-21T03:44:14;98841.53;;;4.80;100.00
43503;BME280;29098;48.184;16.298;2023-11-21T03:46:40;98816.44;;;4.87;100.00
43503;BME280;29098;48.184;16.298;2023-11-21T03:49:06;98846.06;;;4.70;100.00
43503;BME280;29098;48.184;16.298;2023-11-21T03:51:31;98838.94;;;4.80;100.00
43503;BME280;29098;48.184;16.298;2023-11-21T03:53:57;98825.50;;;4.66;100.00
43503;BME280;29098;48.184;16.298;2023-11-21T03:56:22;98828.78;;;4.69;100.00
43503;BME280;29098;48.184;16.298;2023-11-21T03:58:48;98829.72;;;4.59;100.00
43503;BME280;29098;48.184;16.298;2023-11-21T04:01:32;98832.38;;;4.68;100.00
43503;BME280;29098;48.184;16.298;2023-11-21T04:03:58;98806.38;;;4.58;100.00
43503;BME280;29098;48.184;16.298;2023-11-21T04:06:24;98826.56;;;4.47;100.00
43503;BME280;29098;48.184;16.298;2023-11-21T04:08:50;98811.34;;;4.43;100.00
43503;BME280;29098;48.184;16.298;2023-11-21T04:11:16;98817.19;;;4.36;100.00
43503;BME280;29098;48.184;16.298;2023-11-21T04:13:41;98828.28;;;4.38;100.00
43503;BME280;29098;48.184;16.298;2023-11-21T04:16:08;98847.13;;;4.50;100.00
43503;BME280;29098;48.184;16.298;2023-11-21T04:18:37;98856.22;;;4.46;100.00
43503;BME280;29098;48.184;16.298;2023-11-21T04:21:06;98823.41;;;4.35;100.00
43503;BME280;29098;48.184;16.298;2023-11-21T04:23:33;98814.59;;;4.36;100.00
43503;BME280;29098;48.184;16.298;2023-11-21T04:26:00;98837.81;;;4.48;100.00
43503;BME280;29098;48.184;16.298;2023-11-21T04:28:27;98798.19;;;4.26;100.00
43503;BME280;29098;48.184;16.298;2023-11-21T04:30:52;98855.84;;;4.33;100.00
43503;BME280;29098;48.184;16.298;2023-11-21T04:33:18;98761.91;;;4.06;100.00
43503;BME280;29098;48.184;16.298;2023-11-21T04:35:43;98816.22;;;4.37;100.00
43503;BME280;29098;48.184;16.298;2023-11-21T04:38:09;98811.28;;;4.34;100.00
43503;BME280;29098;48.184;16.298;2023-11-21T04:40:35;98837.19;;;4.54;100.00
43503;BME280;29098;48.184;16.298;2023-11-21T04:43:00;98827.34;;;4.48;100.00
43503;BME280;29098;48.184;16.298;2023-11-21T04:45:26;98835.28;;;4.38;100.00
43503;BME280;29098;48.184;16.298;2023-11-21T04:47:52;98828.75;;;4.34;100.00
43503;BME280;29098;48.184;16.298;2023-11-21T04:50:18;98829.78;;;4.15;100.00
43503;BME280;29098;48.184;16.298;2023-11-21T04:52:43;98796.25;;;4.20;100.00
43503;BME280;29098;48.184;16.298;2023-11-21T04:55:08;98823.13;;;4.20;100.00
43503;BME280;29098;48.184;16.298;2023-11-21T04:57:36;98821.88;;;4.24;100.00
43503;BME280;29098;48.184;16.298;2023-11-21T05:00:02;98837.84;;;4.30;100.00
43503;BME280;29098;48.184;16.298;2023-11-21T05:02:31;98839.84;;;4.36;100.00
43503;BME280;29098;48.184;16.298;2023-11-21T05:04:59;98826.75;;;4.28;100.00
43503;BME280;29098;48.184;16.298;2023-11-21T05:07:25;98825.22;;;4.43;100.00
43503;BME280;29098;48.184;16.298;2023-11-21T05:09:54;98792.97;;;4.26;100.00
43503;BME280;29098;48.184;16.298;2023-11-21T05:12:21;98821.44;;;4.37;100.00
43503;BME280;29098;48.184;16.298;2023-11-21T05:14:49;98806.97;;;4.17;100.00
43503;BME280;29098;48.184;16.298;2023-11-21T05:17:14;98853.81;;;4.27;100.00
43503;BME280;29098;48.184;16.298;2023-11-21T05:19:40;98845.69;;;4.30;100.00
43503;BME280;29098;48.184;16.298;2023-11-21T05:22:06;98846.09;;;4.17;100.00
43503;BME280;29098;48.184;16.298;2023-11-21T05:24:33;98831.94;;;4.19;100.00
43503;BME280;29098;48.184;16.298;2023-11-21T05:26:59;98814.03;;;4.24;100.00
43503;BME280;29098;48.184;16.298;2023-11-21T05:29:24;98830.94;;;4.20;100.00
43503;BME280;29098;48.184;16.298;2023-11-21T05:31:51;98848.28;;;4.30;100.00
43503;BME280;29098;48.184;16.298;2023-11-21T05:34:16;98837.28;;;4.18;100.00
43503;BME280;29098;48.184;16.298;2023-11-21T05:36:45;98834.41;;;4.21;100.00
43503;BME280;29098;48.184;16.298;2023-11-21T05:39:11;98857.50;;;4.16;100.00
43503;BME280;29098;48.184;16.298;2023-11-21T05:41:37;98866.56;;;4.30;100.00
43503;BME280;29098;48.184;16.298;2023-11-21T05:44:02;98855.59;;;4.26;100.00
43503;BME280;29098;48.184;16.298;2023-11-21T05:46:28;98847.16;;;4.32;100.00
43503;BME280;29098;48.184;16.298;2023-11-21T05:48:54;98863.03;;;4.13;100.00
43503;BME280;29098;48.184;16.298;2023-11-21T05:51:20;98848.56;;;4.18;100.00
43503;BME280;29098;48.184;16.298;2023-11-21T05:53:46;98882.22;;;4.30;100.00
43503;BME280;29098;48.184;16.298;2023-11-21T05:56:12;98858.97;;;4.36;100.00
43503;BME280;29098;48.184;16.298;2023-11-21T05:58:39;98837.97;;;4.20;100.00
43503;BME280;29098;48.184;16.298;2023-11-21T06:01:05;98834.84;;;4.16;100.00
43503;BME280;29098;48.184;16.298;2023-11-21T06:03:33;98879.41;;;4.23;100.00
43503;BME280;29098;48.184;16.298;2023-11-21T06:05:58;98886.63;;;4.29;100.00
43503;BME280;29098;48.184;16.298;2023-11-21T06:08:24;98867.69;;;4.27;100.00
43503;BME280;29098;48.184;16.298;2023-11-21T06:10:50;98861.19;;;4.31;100.00
43503;BME280;29098;48.184;16.298;2023-11-21T06:13:15;98884.56;;;4.15;100.00
43503;BME280;29098;48.184;16.298;2023-11-21T06:15:41;98902.13;;;4.31;100.00
43503;BME280;29098;48.184;16.298;2023-11-21T06:18:06;98837.91;;;4.11;100.00
43503;BME280;29098;48.184;16.298;2023-11-21T06:20:35;98925.78;;;4.29;100.00
43503;BME280;29098;48.184;16.298;2023-11-21T06:23:02;98922.03;;;4.32;100.00
43503;BME280;29098;48.184;16.298;2023-11-21T06:25:29;98903.72;;;4.50;100.00
43503;BME280;29098;48.184;16.298;2023-11-21T06:27:54;98900.75;;;4.45;100.00
43503;BME280;29098;48.184;16.298;2023-11-21T06:30:21;98881.81;;;4.43;100.00
43503;BME280;29098;48.184;16.298;2023-11-21T06:32:48;98887.97;;;4.60;100.00
43503;BME280;29098;48.184;16.298;2023-11-21T06:35:15;98921.56;;;4.55;100.00
43503;BME280;29098;48.184;16.298;2023-11-21T06:37:41;98931.25;;;4.71;100.00
43503;BME280;29098;48.184;16.298;2023-11-21T06:40:07;98914.63;;;4.72;100.00
43503;BME280;29098;48.184;16.298;2023-11-21T06:42:32;98924.31;;;4.79;100.00
43503;BME280;29098;48.184;16.298;2023-11-21T06:45:03;98919.22;;;4.78;100.00
43503;BME280;29098;48.184;16.298;2023-11-21T06:47:29;98927.44;;;4.83;100.00
43503;BME280;29098;48.184;16.298;2023-11-21T06:49:56;98923.34;;;4.80;100.00
43503;BME280;29098;48.184;16.298;2023-11-21T06:52:22;98895.13;;;4.84;100.00
43503;BME280;29098;48.184;16.298;2023-11-21T06:54:48;98916.31;;;4.81;100.00
43503;BME280;29098;48.184;16.298;2023-11-21T06:57:17;98925.13;;;4.80;100.00
43503;BME280;29098;48.184;16.298;2023-11-21T06:59:43;98925.84;;;4.90;100.00
43503;BME280;29098;48.184;16.298;2023-11-21T07:02:09;98905.75;;;4.91;100.00
43503;BME280;29098;48.184;16.298;2023-11-21T07:04:35;98928.78;;;4.96;100.00
43503;BME280;29098;48.184;16.298;2023-11-21T07:07:02;98898.69;;;4.83;100.00
43503;BME280;29098;48.184;16.298;2023-11-21T07:09:28;98929.09;;;4.92;100.00
43503;BME280;29098;48.184;16.298;2023-11-21T07:11:54;98916.56;;;4.96;100.00
43503;BME280;29098;48.184;16.298;2023-11-21T07:14:21;98937.06;;;5.17;100.00
43503;BME280;29098;48.184;16.298;2023-11-21T07:16:46;98878.75;;;5.09;100.00
43503;BME280;29098;48.184;16.298;2023-11-21T07:19:12;98897.13;;;5.42;100.00
43503;BME280;29098;48.184;16.298;2023-11-21T07:21:38;98967.31;;;5.71;100.00
43503;BME280;29098;48.184;16.298;2023-11-21T07:24:07;98934.63;;;5.67;100.00
43503;BME280;29098;48.184;16.298;2023-11-21T07:26:33;98943.25;;;5.59;100.00
43503;BME280;29098;48.184;16.298;2023-11-21T07:29:00;98957.47;;;5.57;100.00
43503;BME280;29098;48.184;16.298;2023-11-21T07:31:25;98969.41;;;5.59;100.00
43503;BME280;29098;48.184;16.298;2023-11-21T07:33:51;98960.28;;;5.72;100.00
43503;BME280;29098;48.184;16.298;2023-11-21T07:36:17;98971.13;;;5.85;100.00
43503;BME280;29098;48.184;16.298;2023-11-21T07:38:44;98942.66;;;5.90;100.00
43503;BME280;29098;48.184;16.298;2023-11-21T07:41:10;98972.00;;;6.27;100.00
43503;BME280;29098;48.184;16.298;2023-11-21T07:43:36;98929.66;;;6.32;100.00
43503;BME280;29098;48.184;16.298;2023-11-21T07:46:02;98957.97;;;6.28;100.00
43503;BME280;29098;48.184;16.298;2023-11-21T07:48:32;98958.94;;;6.52;100.00
43503;BME280;29098;48.184;16.298;2023-11-21T07:50:58;98934.03;;;6.48;100.00
43503;BME280;29098;48.184;16.298;2023-11-21T07:53:25;98930.13;;;6.61;100.00
43503;BME280;29098;48.184;16.298;2023-11-21T07:55:51;98927.97;;;6.64;100.00
43503;BME280;29098;48.184;16.298;2023-11-21T07:58:17;98954.28;;;6.88;100.00
43503;BME280;29098;48.184;16.298;2023-11-21T08:00:43;98961.81;;;6.99;100.00
43503;BME280;29098;48.184;16.298;2023-11-21T08:03:09;98970.59;;;7.15;100.00
43503;BME280;29098;48.184;16.298;2023-11-21T08:05:36;98943.75;;;7.12;100.00
43503;BME280;29098;48.184;16.298;2023-11-21T08:08:02;98960.72;;;7.25;100.00
43503;BME280;29098;48.184;16.298;2023-11-21T08:10:28;98962.53;;;7.33;100.00
43503;BME280;29098;48.184;16.298;2023-11-21T08:12:53;98976.13;;;7.36;100.00
43503;BME280;29098;48.184;16.298;2023-11-21T08:15:19;98952.78;;;7.42;100.00
43503;BME280;29098;48.184;16.298;2023-11-21T08:17:46;98929.66;;;7.45;100.00
43503;BME280;29098;48.184;16.298;2023-11-21T08:20:12;98971.44;;;7.55;100.00
43503;BME280;29098;48.184;16.298;2023-11-21T08:22:38;98966.19;;;7.55;100.00
43503;BME280;29098;48.184;16.298;2023-11-21T08:25:06;98947.81;;;7.55;100.00
43503;BME280;29098;48.184;16.298;2023-11-21T08:27:33;98969.25;;;7.67;100.00
43503;BME280;29098;48.184;16.298;2023-11-21T08:30:00;98966.06;;;7.48;100.00
43503;BME280;29098;48.184;16.298;2023-11-21T08:32:26;98960.25;;;7.61;100.00
43503;BME280;29098;48.184;16.298;2023-11-21T08:34:52;98992.91;;;7.59;100.00
43503;BME280;29098;48.184;16.298;2023-11-21T08:37:17;98939.31;;;7.53;100.00
43503;BME280;29098;48.184;16.298;2023-11-21T08:39:47;98996.00;;;7.62;100.00
43503;BME280;29098;48.184;16.298;2023-11-21T08:42:13;98981.16;;;7.78;100.00
43503;BME280;29098;48.184;16.298;2023-11-21T08:44:40;98987.25;;;8.02;100.00
43503;BME280;29098;48.184;16.298;2023-11-21T08:47:05;98953.53;;;8.14;100.00
43503;BME280;29098;48.184;16.298;2023-11-21T08:49:31;98983.34;;;8.44;100.00
43503;BME280;29098;48.184;16.298;2023-11-21T08:51:58;98997.72;;;8.57;100.00
43503;BME280;29098;48.184;16.298;2023-11-21T08:54:26;98981.06;;;8.65;100.00
43503;BME280;29098;48.184;16.298;2023-11-21T08:56:52;98964.31;;;8.81;100.00
43503;BME280;29098;48.184;16.298;2023-11-21T08:59:18;98958.34;;;8.87;100.00
43503;BME280;29098;48.184;16.298;2023-11-21T09:01:45;98953.13;;;9.02;100.00
43503;BME280;29098;48.184;16.298;2023-11-21T09:04:12;98958.38;;;9.17;100.00
43503;BME280;29098;48.184;16.298;2023-11-21T09:06:39;98964.97;;;9.28;100.00
43503;BME280;29098;48.184;16.298;2023-11-21T09:09:06;98971.22;;;9.42;100.00
43503;BME280;29098;48.184;16.298;2023-11-21T09:11:33;98989.75;;;9.49;100.00
43503;BME280;29098;48.184;16.298;2023-11-21T09:13:59;98945.06;;;9.55;100.00
43503;BME280;29098;48.184;16.298;2023-11-21T09:16:25;98936.19;;;9.56;100.00
43503;BME280;29098;48.184;16.298;2023-11-21T09:18:50;98972.72;;;9.66;100.00
43503;BME280;29098;48.184;16.298;2023-11-21T09:21:16;98972.22;;;9.78;100.00
43503;BME280;29098;48.184;16.298;2023-11-21T09:23:45;98948.63;;;9.84;100.00
43503;BME280;29098;48.184;16.298;2023-11-21T09:26:11;98951.28;;;10.06;100.00
43503;BME280;29098;48.184;16.298;2023-11-21T09:28:37;98954.59;;;10.37;100.00
43503;BME280;29098;48.184;16.298;2023-11-21T09:31:04;98959.66;;;10.38;100.00
43503;BME280;29098;48.184;16.298;2023-11-21T09:33:30;98943.59;;;10.55;100.00
43503;BME280;29098;48.184;16.298;2023-11-21T09:35:56;98942.16;;;10.52;100.00
43503;BME280;29098;48.184;16.298;2023-11-21T09:38:22;98955.03;;;10.62;100.00
43503;BME280;29098;48.184;16.298;2023-11-21T09:40:48;98941.69;;;10.71;100.00
43503;BME280;29098;48.184;16.298;2023-11-21T09:43:18;98923.34;;;10.55;100.00
43503;BME280;29098;48.184;16.298;2023-11-21T09:45:52;98953.75;;;10.58;100.00
43503;BME280;29098;48.184;16.298;2023-11-21T09:48:20;98933.16;;;10.68;100.00
43503;BME280;29098;48.184;16.298;2023-11-21T09:50:47;98910.81;;;10.64;100.00
43503;BME280;29098;48.184;16.298;2023-11-21T09:53:19;98949.06;;;10.82;100.00
43503;BME280;29098;48.184;16.298;2023-11-21T09:55:52;98939.41;;;10.96;100.00
43503;BME280;29098;48.184;16.298;2023-11-21T09:58:18;98920.78;;;10.69;100.00
43503;BME280;29098;48.184;16.298;2023-11-21T10:00:48;98955.63;;;10.93;100.00
43503;BME280;29098;48.184;16.298;2023-11-21T10:03:14;98922.00;;;11.02;100.00
43503;BME280;29098;48.184;16.298;2023-11-21T10:05:43;98951.72;;;11.24;100.00
43503;BME280;29098;48.184;16.298;2023-11-21T10:08:12;98951.31;;;11.20;100.00
43503;BME280;29098;48.184;16.298;2023-11-21T10:10:43;98958.19;;;11.15;100.00
43503;BME280;29098;48.184;16.298;2023-11-21T10:13:13;98947.47;;;11.23;100.00
43503;BME280;29098;48.184;16.298;2023-11-21T10:15:42;98899.28;;;11.01;100.00
43503;BME280;29098;48.184;16.298;2023-11-21T10:18:14;98946.13;;;11.41;100.00
43503;BME280;29098;48.184;16.298;2023-11-21T10:20:40;98922.16;;;11.42;100.00
43503;BME280;29098;48.184;16.298;2023-11-21T10:23:07;98925.56;;;11.22;100.00
43503;BME280;29098;48.184;16.298;2023-11-21T10:25:36;98923.00;;;11.49;100.00
43503;BME280;29098;48.184;16.298;2023-11-21T10:28:03;98904.75;;;11.55;100.00
43503;BME280;29098;48.184;16.298;2023-11-21T10:30:35;98910.06;;;11.06;100.00
43503;BME280;29098;48.184;16.298;2023-11-21T10:33:04;98927.41;;;11.29;100.00
43503;BME280;29098;48.184;16.298;2023-11-21T10:35:45;98920.09;;;11.31;100.00
43503;BME280;29098;48.184;16.298;2023-11-21T10:38:17;98931.56;;;11.51;100.00
43503;BME280;29098;48.184;16.298;2023-11-21T10:40:44;98922.69;;;11.79;100.00
43503;BME280;29098;48.184;16.298;2023-11-21T10:43:10;98900.75;;;11.79;87.65
43503;BME280;29098;48.184;16.298;2023-11-21T10:45:38;98921.16;;;12.05;85.25
43503;BME280;29098;48.184;16.298;2023-11-21T10:48:07;98921.06;;;11.85;84.32
43503;BME280;29098;48.184;16.298;2023-11-21T10:50:34;98899.13;;;11.85;82.81
43503;BME280;29098;48.184;16.298;2023-11-21T10:53:04;98916.28;;;12.16;82.29
43503;BME280;29098;48.184;16.298;2023-11-21T10:55:31;98931.72;;;12.19;80.98
43503;BME280;29098;48.184;16.298;2023-11-21T10:57:59;98895.50;;;11.99;80.83
43503;BME280;29098;48.184;16.298;2023-11-21T11:00:28;98896.53;;;11.98;81.01
43503;BME280;29098;48.184;16.298;2023-11-21T11:02:54;98919.25;;;11.92;80.60
43503;BME280;29098;48.184;16.298;2023-11-21T11:05:24;98893.44;;;11.81;80.53
43503;BME280;29098;48.184;16.298;2023-11-21T11:08:02;98882.81;;;11.47;82.27
43503;BME280;29098;48.184;16.298;2023-11-21T11:10:29;98901.09;;;11.56;83.45
43503;BME280;29098;48.184;16.298;2023-11-21T11:12:56;98916.13;;;11.55;82.97
43503;BME280;29098;48.184;16.298;2023-11-21T11:15:26;98891.38;;;11.56;81.89
43503;BME280;29098;48.184;16.298;2023-11-21T11:17:53;98903.75;;;11.56;82.25
43503;BME280;29098;48.184;16.298;2023-11-21T11:20:23;98893.41;;;11.61;80.53
43503;BME280;29098;48.184;16.298;2023-11-21T11:25:58;98877.59;;;11.81;78.55
43503;BME280;29098;48.184;16.298;2023-11-21T11:31:37;98922.56;;;12.35;78.50
43503;BME280;29098;48.184;16.298;2023-11-21T11:37:11;98900.81;;;12.40;75.52
43503;BME280;29098;48.184;16.298;2023-11-21T11:39:39;98909.34;;;12.35;75.87
43503;BME280;29098;48.184;16.298;2023-11-21T11:42:11;98867.50;;;12.18;75.49
43503;BME280;29098;48.184;16.298;2023-11-21T11:47:15;98895.91;;;11.83;76.30
43503;BME280;29098;48.184;16.298;2023-11-21T11:50:01;98889.16;;;11.73;77.32
43503;BME280;29098;48.184;16.298;2023-11-21T11:52:36;98907.63;;;11.67;78.57
43503;BME280;29098;48.184;16.298;2023-11-21T11:55:03;98881.19;;;11.46;78.93
43503;BME280;29098;48.184;16.298;2023-11-21T11:57:30;98911.66;;;11.49;79.16
43503;BME280;29098;48.184;16.298;2023-11-21T12:02:42;98925.06;;;11.54;77.72
43503;BME280;29098;48.184;16.298;2023-11-21T12:05:16;98888.50;;;11.58;76.87
43503;BME280;29098;48.184;16.298;2023-11-21T12:07:53;98917.78;;;11.70;77.01
43503;BME280;29098;48.184;16.298;2023-11-21T12:10:27;98888.91;;;11.55;76.63
43503;BME280;29098;48.184;16.298;2023-11-21T12:13:06;98929.31;;;11.55;77.20
43503;BME280;29098;48.184;16.298;2023-11-21T12:15:37;98910.44;;;11.51;77.38
43503;BME280;29098;48.184;16.298;2023-11-21T12:18:04;98891.69;;;11.40;76.73
43503;BME280;29098;48.184;16.298;2023-11-21T12:20:30;98940.09;;;11.54;77.50
43503;BME280;29098;48.184;16.298;2023-11-21T12:23:00;98905.59;;;11.62;77.79
43503;BME280;29098;48.184;16.298;2023-11-21T12:25:29;98929.16;;;11.70;78.68
43503;BME280;29098;48.184;16.298;2023-11-21T12:27:57;98899.09;;;11.64;78.58
43503;BME280;29098;48.184;16.298;2023-11-21T12:30:25;98950.25;;;11.57;78.38
43503;BME280;29098;48.184;16.298;2023-11-21T12:32:54;98919.81;;;11.61;78.36
43503;BME280;29098;48.184;16.298;2023-11-21T12:35:30;98929.06;;;11.43;78.50
43503;BME280;29098;48.184;16.298;2023-11-21T12:37:59;98902.69;;;11.43;79.53
43503;BME280;29098;48.184;16.298;2023-11-21T12:40:28;98909.47;;;11.10;78.63
43503;BME280;29098;48.184;16.298;2023-11-21T12:42:58;98872.38;;;10.77;79.49
43503;BME280;29098;48.184;16.298;2023-11-21T12:45:26;98861.91;;;10.90;78.42
43503;BME280;29098;48.184;16.298;2023-11-21T12:48:02;98903.69;;;10.93;79.69
43503;BME280;29098;48.184;16.298;2023-11-21T12:50:30;98917.41;;;10.82;80.17
43503;BME280;29098;48.184;16.298;2023-11-21T12:53:07;98930.19;;;10.78;80.12
43503;BME280;29098;48.184;16.298;2023-11-21T12:55:37;98911.88;;;10.70;80.73
43503;BME280;29098;48.184;16.298;2023-11-21T12:58:05;98947.34;;;10.67;83.02
43503;BME280;29098;48.184;16.298;2023-11-21T13:00:36;98936.81;;;10.67;84.26
43503;BME280;29098;48.184;16.298;2023-11-21T13:03:07;98932.78;;;10.72;85.44